F\v Desperado — FVFQ — position and weather

sailwx.info

Track history (hours):
 
Tides and Currents Weather Stations Pressure Air Temp Water Temp Dewpoint Dewpoint Depression Visibility Wind Speed Wind Dir Waves Ship Positions

F\v Desperado

Last reported at 2014-Dec-22 03:34 UTC. Time now 2014-Dec-22 07:05 UTC.
Position N 46°22' W 002°09'.

Type: Fishing. MMSI: 228312000.

Date/timePositionNaut miles runAvg speedWind from/ knotsBaromVisibWave heightAir tempDewpointWater temp
2014-Dec-22 03:34N 46°22' W 002°09'8 7.6
2014-Dec-22 02:33N 46°25' W 001°59'7 7.4
2014-Dec-22 01:34N 46°27' W 001°49'3 2.8
2014-Dec-22 00:33N 46°30' W 001°47'0 0.0
2014-Dec-21 23:33N 46°30' W 001°47'4 3.8
2014-Dec-21 22:33N 46°27' W 001°51'  
2014-Dec-19 07:08N 46°13' W 002°22'4 6.7
2014-Dec-19 06:33N 46°15' W 002°17'7 7.0
2014-Dec-19 05:33N 46°18' W 002°08'7 7.1
2014-Dec-19 04:33N 46°22' W 001°60'7 7.2
2014-Dec-19 03:33N 46°26' W 001°51'4 4.3
2014-Dec-19 02:33N 46°30' W 001°47'0 0.0
2014-Dec-19 01:33N 46°30' W 001°47'0 0.2
2014-Dec-19 00:33N 46°30' W 001°47'0 0.0
2014-Dec-18 23:33N 46°30' W 001°47'7 6.7
2014-Dec-18 22:33N 46°25' W 001°54'  
2014-Dec-16 04:11N 46°21' W 002°10'5 7.5
2014-Dec-16 03:32N 46°23' W 002°03'8 8.0
2014-Dec-16 02:33N 46°26' W 001°52'6 5.6
2014-Dec-16 01:33N 46°30' W 001°47'0 0.0
2014-Dec-16 00:33N 46°30' W 001°47'5 5.5
2014-Dec-15 23:33N 46°26' W 001°52'  
Track history (hours):
 
Tides and Currents Weather Stations Pressure Air Temp Water Temp Dewpoint Dewpoint Depression Visibility Wind Speed Wind Dir Waves Ship Positions

F\v Desperado

Last reported at 2014-Dec-22 03:34 UTC. Time now 2014-Dec-22 07:05 UTC.
Position N 46°22' W 002°09'.

Type: Fishing. MMSI: 228312000.

Date/timePositionNaut miles runAvg speedWind from/ knotsBaromVisibWave heightAir tempDewpointWater temp
2014-Dec-22 03:34N 46°22' W 002°09'8 7.6
2014-Dec-22 02:33N 46°25' W 001°59'7 7.4
2014-Dec-22 01:34N 46°27' W 001°49'3 2.8
2014-Dec-22 00:33N 46°30' W 001°47'0 0.0
2014-Dec-21 23:33N 46°30' W 001°47'4 3.8
2014-Dec-21 22:33N 46°27' W 001°51'  
2014-Dec-19 07:08N 46°13' W 002°22'4 6.7
2014-Dec-19 06:33N 46°15' W 002°17'7 7.0
2014-Dec-19 05:33N 46°18' W 002°08'7 7.1
2014-Dec-19 04:33N 46°22' W 001°60'7 7.2
2014-Dec-19 03:33N 46°26' W 001°51'4 4.3
2014-Dec-19 02:33N 46°30' W 001°47'0 0.0
2014-Dec-19 01:33N 46°30' W 001°47'0 0.2
2014-Dec-19 00:33N 46°30' W 001°47'0 0.0
2014-Dec-18 23:33N 46°30' W 001°47'7 6.7
2014-Dec-18 22:33N 46°25' W 001°54'  
2014-Dec-16 04:11N 46°21' W 002°10'5 7.5
2014-Dec-16 03:32N 46°23' W 002°03'8 8.0
2014-Dec-16 02:33N 46°26' W 001°52'6 5.6
2014-Dec-16 01:33N 46°30' W 001°47'0 0.0
2014-Dec-16 00:33N 46°30' W 001°47'5 5.5
2014-Dec-15 23:33N 46°26' W 001°52'  

Dump ship's entire track history